Time;durP1;ratioP1;P1;durP2;ratioP2;P2;SDS_P1;SDS_P2;PMS_P1;PMS_P2;Temp;Humidity;BMP_temperature;BMP_pressure;BME280_temperature;BME280_humidity;BME280_pressure;Samples;Min_cycle;Max_cycle;Signal;HPM_P1;HPM_P2
2023/10/07 00:01:24;;;;;;;20.83;5.85;;;16.20;99.90;;;;;;5054438;28;20040;-50
2023/10/07 00:03:53;;;;;;;16.30;4.85;;;16.20;99.90;;;;;;5053400;28;20465;-50
2023/10/07 00:06:19;;;;;;;14.23;4.43;;;16.10;99.90;;;;;;5054026;28;20135;-51
2023/10/07 00:08:45;;;;;;;16.10;5.03;;;16.20;99.90;;;;;;5054159;28;20041;-49
2023/10/07 00:11:16;;;;;;;16.58;3.85;;;16.20;99.90;;;;;;5054333;28;20048;-49
2023/10/07 00:13:42;;;;;;;12.90;4.20;;;16.20;99.90;;;;;;5053375;28;20053;-49
2023/10/07 00:16:11;;;;;;;10.15;3.00;;;16.20;99.90;;;;;;5054417;28;20469;-49
2023/10/07 00:18:38;;;;;;;11.80;3.97;;;16.20;99.90;;;;;;5054144;28;20025;-49
2023/10/07 00:21:04;;;;;;;18.52;5.97;;;16.20;99.90;;;;;;5054210;28;20418;-47
2023/10/07 00:23:34;;;;;;;17.00;4.82;;;16.10;99.90;;;;;;5054282;28;20060;-47
2023/10/07 00:26:00;;;;;;;16.27;4.25;;;16.20;99.90;;;;;;5054682;28;20057;-47
2023/10/07 00:28:32;;;;;;;16.45;5.00;;;16.10;99.90;;;;;;5058004;28;20067;-47
2023/10/07 00:31:12;;;;;;;21.38;4.63;;;16.10;99.90;;;;;;5058032;28;20481;-47
2023/10/07 00:33:52;;;;;;;14.15;4.57;;;16.10;99.90;;;;;;5057957;28;20056;-50
2023/10/07 00:38:59;;;;;;;12.80;4.35;;;16.10;99.90;;;;;;5057573;28;20029;-49
2023/10/07 00:41:36;;;;;;;10.93;3.63;;;16.10;99.90;;;;;;5056470;28;20048;-50
2023/10/07 00:44:16;;;;;;;9.50;3.28;;;16.10;99.90;;;;;;5057686;28;20029;-47
2023/10/07 00:46:42;;;;;;;;;;;16.20;99.90;;;;;;5057787;28;20123;-50
2023/10/07 00:49:16;;;;;;;13.75;4.25;;;16.20;99.90;;;;;;5057466;28;20057;-50
2023/10/07 00:51:46;;;;;;;15.25;4.35;;;16.20;99.90;;;;;;5056363;28;20045;-50
2023/10/07 00:57:03;;;;;;;13.90;4.00;;;16.10;99.90;;;;;;5056405;28;20036;-51
2023/10/07 00:59:30;;;;;;;18.67;4.60;;;16.20;99.90;;;;;;5056342;28;20112;-50
2023/10/07 01:01:57;;;;;;;11.80;4.07;;;16.20;99.90;;;;;;5057311;28;20445;-51
2023/10/07 01:04:24;;;;;;;13.43;3.58;;;16.20;99.90;;;;;;5057231;28;20037;-50
2023/10/07 01:07:00;;;;;;;17.50;4.35;;;16.20;99.90;;;;;;5056791;28;20059;-53
2023/10/07 01:09:25;;;;;;;21.95;5.15;;;16.30;99.90;;;;;;5057258;28;20036;-50
2023/10/07 01:11:57;;;;;;;13.85;4.22;;;16.20;99.90;;;;;;5057185;28;20033;-49
2023/10/07 01:14:33;;;;;;;18.45;4.40;;;16.20;99.90;;;;;;5057075;28;20024;-50
2023/10/07 01:17:00;;;;;;;8.13;3.22;;;16.20;99.90;;;;;;5055918;28;20065;-50
2023/10/07 01:21:56;;;;;;;14.02;3.83;;;16.30;99.90;;;;;;5056925;28;20111;-49
2023/10/07 01:27:17;;;;;;;16.17;4.03;;;16.20;99.90;;;;;;5056792;28;20480;-50
2023/10/07 01:29:43;;;;;;;12.98;3.90;;;16.20;99.90;;;;;;5056874;28;20055;-50
2023/10/07 01:32:12;;;;;;;15.00;4.15;;;16.20;99.90;;;;;;5056759;28;20451;-48
2023/10/07 01:34:38;;;;;;;11.27;3.88;;;16.20;99.90;;;;;;5056461;28;20028;-48
2023/10/07 01:37:05;;;;;;;12.18;3.90;;;16.20;99.90;;;;;;5038505;28;20052;-47
2023/10/07 01:39:40;;;;;;;18.77;5.03;;;16.20;99.90;;;;;;5056687;28;20120;-49
2023/10/07 01:42:07;;;;;;;15.85;4.55;;;16.20;99.90;;;;;;5056667;28;20036;-51
2023/10/07 01:44:38;;;;;;;9.38;3.40;;;16.20;99.90;;;;;;5056302;28;20100;-50
2023/10/07 01:47:12;;;;;;;21.48;5.55;;;16.20;99.90;;;;;;5056573;28;20033;-50
2023/10/07 01:49:39;;;;;;;12.30;4.30;;;16.20;99.90;;;;;;5056464;28;20029;-49
2023/10/07 01:52:05;;;;;;;16.50;5.40;;;16.20;99.90;;;;;;5056437;28;20025;-48
2023/10/07 01:54:33;;;;;;;21.33;4.97;;;16.20;99.90;;;;;;5056296;28;20450;-50
2023/10/07 01:57:04;;;;;;;9.35;3.45;;;16.20;99.90;;;;;;5056167;28;20039;-47
2023/10/07 01:59:30;;;;;;;17.40;4.45;;;16.20;99.90;;;;;;5056411;28;20413;-50
2023/10/07 02:02:06;;;;;;;14.00;4.90;;;16.20;99.90;;;;;;5056137;28;20029;-50
2023/10/07 02:04:32;;;;;;;15.10;4.90;;;16.20;99.90;;;;;;5055906;28;20368;-50
2023/10/07 02:06:58;;;;;;;14.40;5.03;;;16.20;99.90;;;;;;5055780;28;20048;-50
2023/10/07 02:09:24;;;;;;;15.93;5.35;;;16.20;99.90;;;;;;5054615;28;20366;-48
2023/10/07 02:11:54;;;;;;;12.35;4.80;;;16.20;99.90;;;;;;5054994;28;20037;-50
2023/10/07 02:14:27;;;;;;;9.15;3.35;;;16.20;99.90;;;;;;5054638;28;20025;-50
2023/10/07 02:16:53;;;;;;;13.35;4.93;;;16.20;99.90;;;;;;5039074;28;20025;-51
2023/10/07 02:19:27;;;;;;;16.27;5.40;;;16.20;99.90;;;;;;5055812;28;20037;-50
2023/10/07 02:22:04;;;;;;;15.70;5.35;;;16.20;99.90;;;;;;5055828;28;20052;-50
2023/10/07 02:24:30;;;;;;;15.60;5.15;;;16.20;99.90;;;;;;5055719;28;20418;-48
2023/10/07 02:27:16;;;;;;;13.20;4.55;;;16.20;99.90;;;;;;5055157;28;20124;-50
2023/10/07 02:29:43;;;;;;;16.33;5.18;;;16.20;99.90;;;;;;5055776;28;20029;-50
2023/10/07 02:32:14;;;;;;;18.77;5.05;;;16.20;99.90;;;;;;5055690;28;20025;-51
2023/10/07 02:34:51;;;;;;;14.40;4.78;;;16.20;99.90;;;;;;5055536;28;20025;-50
2023/10/07 02:37:18;;;;;;;13.52;4.60;;;16.20;99.90;;;;;;5055416;28;20033;-50
2023/10/07 02:39:46;;;;;;;14.77;4.80;;;16.20;99.90;;;;;;5055518;28;20028;-50
2023/10/07 02:42:21;;;;;;;12.52;5.25;;;16.30;99.90;;;;;;5053974;28;20041;-49
2023/10/07 02:45:20;;;;;;;14.30;4.68;;;16.20;99.90;;;;;;5055250;28;20033;-50
2023/10/07 02:47:50;;;;;;;16.13;5.53;;;16.20;99.90;;;;;;5055289;28;20035;-50
2023/10/07 02:50:16;;;;;;;26.23;5.25;;;16.20;99.90;;;;;;5053400;28;20340;-50
2023/10/07 02:52:45;;;;;;;11.68;4.57;;;16.20;99.90;;;;;;5054264;28;20094;-50
2023/10/07 02:55:28;;;;;;;16.90;5.13;;;16.10;99.90;;;;;;5055243;28;20029;-50
2023/10/07 02:57:56;;;;;;;15.63;5.55;;;16.10;99.90;;;;;;5054054;28;20044;-51
2023/10/07 03:00:49;;;;;;;22.63;5.72;;;16.10;99.90;;;;;;5054413;28;20106;-50
2023/10/07 03:05:49;;;;;;;16.92;5.60;;;16.00;99.90;;;;;;5054780;28;20041;-50
2023/10/07 03:08:21;;;;;;;19.63;5.05;;;16.00;99.90;;;;;;5054095;28;20124;-50
2023/10/07 03:13:38;;;;;;;20.27;5.93;;;16.00;99.90;;;;;;5054888;28;20133;-50
2023/10/07 03:24:10;;;;;;;19.48;5.70;;;16.00;99.90;;;;;;5054969;28;20041;-50
2023/10/07 03:26:40;;;;;;;16.85;5.30;;;16.00;99.90;;;;;;5037643;28;20036;-50
2023/10/07 03:29:07;;;;;;;20.60;6.00;;;16.00;99.90;;;;;;5054704;28;20044;-51
2023/10/07 03:31:34;;;;;;;12.23;4.95;;;16.00;99.90;;;;;;5054480;28;20021;-47
2023/10/07 03:34:01;;;;;;;14.98;5.10;;;16.00;99.90;;;;;;5054874;28;20090;-48
2023/10/07 03:36:45;;;;;;;18.63;6.28;;;16.00;99.90;;;;;;5054518;28;20108;-50
2023/10/07 03:41:55;;;;;;;;;;;16.00;99.90;;;;;;5055154;28;20075;-46
2023/10/07 03:44:22;;;;;;;18.65;5.97;;;16.00;99.90;;;;;;5053881;28;19912;-47
2023/10/07 03:46:49;;;;;;;20.25;6.65;;;16.00;99.90;;;;;;5054436;28;20060;-48
2023/10/07 03:49:15;;;;;;;19.63;5.63;;;16.00;99.90;;;;;;5054496;28;20397;-47
2023/10/07 03:54:32;;;;;;;13.75;5.25;;;16.00;99.90;;;;;;5054621;28;20350;-46
2023/10/07 03:57:00;;;;;;;16.65;5.57;;;16.00;99.90;;;;;;5053596;28;20382;-47
2023/10/07 03:59:31;;;;;;;20.27;6.57;;;16.00;99.90;;;;;;5054555;28;20100;-48
2023/10/07 04:01:58;;;;;;;18.50;6.03;;;16.00;99.90;;;;;;5058066;28;20021;-47
2023/10/07 04:04:24;;;;;;;23.00;6.63;;;16.00;99.90;;;;;;5058361;28;20029;-47
2023/10/07 04:06:50;;;;;;;21.55;6.95;;;16.00;99.90;;;;;;5058012;28;20107;-48
2023/10/07 04:09:16;;;;;;;13.80;5.43;;;16.00;99.90;;;;;;5058515;28;20083;-48
2023/10/07 04:11:48;;;;;;;15.07;5.25;;;16.00;99.90;;;;;;5057231;28;20450;-48
2023/10/07 04:14:22;;;;;;;15.07;4.82;;;16.00;99.90;;;;;;5058387;28;20040;-47
2023/10/07 04:16:52;;;;;;;15.98;6.53;;;16.00;99.90;;;;;;5058130;28;20458;-47
2023/10/07 04:21:44;;;;;;;17.42;5.72;;;16.00;99.90;;;;;;5058253;28;20033;-47
2023/10/07 04:24:10;;;;;;;24.13;6.25;;;16.00;99.90;;;;;;5058131;28;20115;-47
2023/10/07 04:26:51;;;;;;;22.50;6.30;;;16.00;99.90;;;;;;5056856;28;20525;-48
2023/10/07 04:29:17;;;;;;;20.02;5.95;;;15.90;99.90;;;;;;5057965;28;20119;-48
2023/10/07 04:31:53;;;;;;;14.40;5.18;;;16.00;99.90;;;;;;5057514;28;20460;-48
2023/10/07 04:34:20;;;;;;;18.33;5.22;;;16.00;99.90;;;;;;5058032;28;20052;-48
2023/10/07 04:37:11;;;;;;;16.35;5.75;;;16.00;99.90;;;;;;5057794;28;20033;-48
2023/10/07 04:40:27;;;;;;;17.52;5.90;;;16.00;99.90;;;;;;5056984;28;20025;-49
2023/10/07 04:42:36;;;;;;;16.48;5.10;;;16.00;99.90;;;;;;5056489;28;20037;-48
2023/10/07 04:45:24;;;;;;;15.18;6.05;;;16.00;99.90;;;;;;5057701;28;20032;-48
2023/10/07 04:48:06;;;;;;;18.15;6.40;;;16.00;99.90;;;;;;5057647;28;20041;-49
2023/10/07 04:50:36;;;;;;;17.63;6.25;;;16.00;99.90;;;;;;5057289;28;20047;-48
2023/10/07 04:53:03;;;;;;;14.05;5.05;;;16.00;99.90;;;;;;5057372;28;20343;-48
2023/10/07 04:55:30;;;;;;;19.05;6.35;;;16.00;99.90;;;;;;5057678;28;20031;-48
2023/10/07 05:03:11;;;;;;;13.48;5.45;;;16.00;99.90;;;;;;5055949;28;20041;-51
2023/10/07 05:05:36;;;;;;;18.40;6.45;;;16.00;99.90;;;;;;5057000;28;20370;-48
2023/10/07 05:08:10;;;;;;;20.67;6.40;;;16.00;99.90;;;;;;5056296;28;20094;-48
2023/10/07 05:10:41;;;;;;;15.88;6.25;;;16.00;99.90;;;;;;5057186;28;20445;-49
2023/10/07 05:13:07;;;;;;;15.13;5.13;;;16.10;99.90;;;;;;5056432;28;20093;-51
2023/10/07 05:15:38;;;;;;;20.08;7.03;;;16.10;99.90;;;;;;5057088;28;20029;-48
2023/10/07 05:18:05;;;;;;;15.95;5.90;;;16.10;99.90;;;;;;5057038;28;20405;-48
2023/10/07 05:20:33;;;;;;;20.55;6.38;;;16.10;99.90;;;;;;5055718;28;20454;-47
2023/10/07 05:23:02;;;;;;;22.40;7.38;;;16.10;99.90;;;;;;5057009;28;20412;-49
2023/10/07 05:25:28;;;;;;;;;;;16.10;99.90;;;;;;5057494;28;20035;-48
2023/10/07 05:27:56;;;;;;;19.88;7.43;;;16.10;99.90;;;;;;5056812;28;19927;-48
2023/10/07 05:30:22;;;;;;;27.73;7.97;;;16.10;99.90;;;;;;5056747;28;20029;-51
2023/10/07 05:32:47;;;;;;;19.02;6.03;;;16.00;99.90;;;;;;5056567;28;20048;-49
2023/10/07 05:35:18;;;;;;;21.70;8.77;;;16.10;99.90;;;;;;5056361;28;20061;-51
2023/10/07 05:37:47;;;;;;;23.50;7.60;;;16.00;99.90;;;;;;5055587;28;20029;-51
2023/10/07 05:40:15;;;;;;;17.85;7.57;;;16.10;99.90;;;;;;5056502;28;20522;-50
2023/10/07 05:42:42;;;;;;;20.38;7.32;;;16.10;99.90;;;;;;5056350;28;20052;-51
2023/10/07 05:45:08;;;;;;;22.30;7.93;;;16.10;99.90;;;;;;5055236;28;20025;-51
2023/10/07 05:47:34;;;;;;;23.90;8.25;;;16.10;99.90;;;;;;5056344;28;20127;-52
2023/10/07 05:50:00;;;;;;;22.45;8.85;;;16.00;99.90;;;;;;5056374;28;20129;-51
2023/10/07 05:52:28;;;;;;;22.75;8.25;;;16.00;99.90;;;;;;5054983;28;20506;-51
2023/10/07 05:54:56;;;;;;;19.67;7.28;;;16.00;99.90;;;;;;5056237;28;20029;-51
2023/10/07 05:57:23;;;;;;;18.08;7.65;;;16.10;99.90;;;;;;5056207;28;20051;-52
2023/10/07 05:59:50;;;;;;;21.42;7.40;;;16.10;99.90;;;;;;5056252;28;20025;-52
2023/10/07 06:02:16;;;;;;;23.60;8.30;;;16.10;99.90;;;;;;5056640;28;20025;-51
2023/10/07 06:04:44;;;;;;;13.73;6.38;;;16.00;99.90;;;;;;5055882;28;20419;-51
2023/10/07 06:07:15;;;;;;;18.95;6.88;;;16.10;99.90;;;;;;5055762;28;20091;-51
2023/10/07 06:09:42;;;;;;;22.95;7.63;;;16.10;99.90;;;;;;5055074;28;20041;-51
2023/10/07 06:12:09;;;;;;;19.52;6.78;;;16.10;99.90;;;;;;5056040;28;20029;-48
2023/10/07 06:14:38;;;;;;;24.95;8.52;;;16.10;99.90;;;;;;5055893;28;20032;-50
2023/10/07 06:17:07;;;;;;;19.83;8.13;;;16.10;99.90;;;;;;5055841;28;20361;-47
2023/10/07 06:19:36;;;;;;;19.48;7.88;;;16.10;99.90;;;;;;5055820;28;20033;-47
2023/10/07 06:22:10;;;;;;;19.17;7.27;;;16.10;99.90;;;;;;5055251;28;20029;-47
2023/10/07 06:24:39;;;;;;;24.40;8.77;;;16.10;99.90;;;;;;5054619;28;20106;-49
2023/10/07 06:27:08;;;;;;;18.60;7.88;;;16.10;99.90;;;;;;5054381;28;20037;-47
2023/10/07 06:29:34;;;;;;;18.63;7.60;;;16.10;99.90;;;;;;5055705;28;20022;-49
2023/10/07 06:34:44;;;;;;;20.08;7.60;;;16.00;99.90;;;;;;5055634;28;20385;-48
2023/10/07 06:37:10;;;;;;;29.58;9.60;;;16.00;99.90;;;;;;5054407;28;20087;-49
2023/10/07 06:39:37;;;;;;;21.65;7.38;;;16.00;99.90;;;;;;5054412;28;20045;-49
2023/10/07 06:42:02;;;;;;;21.27;8.38;;;16.00;99.90;;;;;;5055423;28;20021;-48
2023/10/07 06:44:30;;;;;;;28.15;9.40;;;16.00;99.90;;;;;;5055277;28;20033;-47
2023/10/07 06:46:56;;;;;;;25.40;9.25;;;16.00;99.90;;;;;;5055045;28;20040;-47
2023/10/07 06:49:22;;;;;;;22.85;8.38;;;16.00;99.90;;;;;;5055306;28;20049;-47
2023/10/07 06:51:53;;;;;;;17.85;6.35;;;16.00;99.90;;;;;;5055166;28;20057;-47
2023/10/07 06:54:32;;;;;;;27.65;8.80;;;16.00;99.90;;;;;;5055083;28;20033;-47
2023/10/07 06:56:58;;;;;;;26.73;8.27;;;16.00;99.90;;;;;;5055064;28;20025;-47
2023/10/07 06:59:29;;;;;;;17.02;7.25;;;16.00;99.90;;;;;;5055070;28;20040;-49
2023/10/07 07:01:55;;;;;;;20.02;7.40;;;16.00;99.90;;;;;;5054132;28;20025;-47
2023/10/07 07:04:22;;;;;;;14.52;5.90;;;16.00;99.90;;;;;;5054790;28;20465;-47
2023/10/07 07:06:57;;;;;;;24.70;8.30;;;16.00;99.90;;;;;;5054667;28;20096;-47
2023/10/07 07:09:42;;;;;;;19.42;8.30;;;16.00;99.90;;;;;;5054947;28;20127;-48
2023/10/07 07:12:09;;;;;;;21.27;6.80;;;16.00;99.90;;;;;;5055032;28;20030;-47
2023/10/07 07:14:41;;;;;;;27.17;7.35;;;16.00;99.90;;;;;;5054819;28;20082;-48
2023/10/07 07:20:19;;;;;;;19.95;7.28;;;16.10;99.90;;;;;;5054879;28;20091;-48
2023/10/07 07:22:45;;;;;;;23.67;8.23;;;16.10;99.90;;;;;;5054254;28;20073;-48
2023/10/07 07:27:52;;;;;;;19.58;7.60;;;16.10;99.90;;;;;;5054878;28;20041;-47
2023/10/07 07:30:31;;;;;;;25.30;9.10;;;16.10;99.90;;;;;;5053949;28;20035;-47
2023/10/07 07:33:06;;;;;;;23.30;8.02;;;16.10;99.90;;;;;;5054460;28;20032;-48
2023/10/07 07:35:40;;;;;;;19.27;7.43;;;16.10;99.90;;;;;;5056015;28;20040;-48
2023/10/07 07:38:43;;;;;;;21.52;9.18;;;16.10;99.90;;;;;;5058694;28;20044;-47
2023/10/07 07:41:05;;;;;;;16.65;7.05;;;16.10;99.90;;;;;;5058055;28;20378;-48
2023/10/07 07:43:36;;;;;;;26.38;8.52;;;16.10;99.90;;;;;;5058554;28;20453;-48
2023/10/07 07:46:28;;;;;;;18.20;7.35;;;16.10;99.90;;;;;;5057428;28;20085;-48
2023/10/07 07:49:08;;;;;;;19.23;7.65;;;16.10;99.90;;;;;;5058418;28;20399;-49
2023/10/07 07:51:41;;;;;;;19.13;8.25;;;16.10;99.90;;;;;;5057358;28;20033;-48
2023/10/07 07:54:07;;;;;;;28.10;9.75;;;16.10;99.90;;;;;;5058402;28;20493;-48
2023/10/07 07:56:36;;;;;;;21.58;8.05;;;16.10;99.90;;;;;;5058312;28;20013;-48
2023/10/07 07:59:13;;;;;;;17.38;6.85;;;16.20;99.90;;;;;;5057072;28;20040;-48
2023/10/07 08:01:50;;;;;;;21.48;8.18;;;16.20;99.90;;;;;;5058222;28;20040;-50
2023/10/07 08:04:37;;;;;;;25.98;8.40;;;16.20;99.90;;;;;;5058408;28;20056;-48
2023/10/07 08:07:06;;;;;;;12.70;5.28;;;16.20;99.90;;;;;;5057748;28;20113;-48
2023/10/07 08:09:36;;;;;;;18.25;7.25;;;16.20;99.90;;;;;;5057707;28;20382;-51
2023/10/07 08:12:09;;;;;;;19.45;7.55;;;16.20;99.90;;;;;;5058065;28;20381;-51
2023/10/07 08:14:37;;;;;;;19.58;8.27;;;16.20;99.90;;;;;;5057818;28;20041;-51
2023/10/07 08:17:08;;;;;;;18.20;6.95;;;16.20;99.90;;;;;;5057799;28;20163;-51
2023/10/07 08:19:35;;;;;;;23.00;5.95;;;16.20;99.90;;;;;;5057680;28;20310;-51
2023/10/07 08:22:03;;;;;;;12.32;6.20;;;16.20;99.90;;;;;;5056749;28;20036;-51
2023/10/07 08:24:31;;;;;;;20.63;7.72;;;16.20;99.90;;;;;;5057778;28;20029;-51
2023/10/07 08:27:03;;;;;;;19.42;7.40;;;16.20;99.90;;;;;;5057518;28;20112;-52
2023/10/07 08:29:32;;;;;;;23.48;8.45;;;16.20;99.90;;;;;;5057459;28;20100;-51
2023/10/07 08:32:09;;;;;;;22.10;7.47;;;16.20;99.90;;;;;;5057650;28;20103;-52
2023/10/07 08:34:35;;;;;;;21.13;7.55;;;16.20;99.90;;;;;;5057650;28;20029;-52
2023/10/07 08:37:02;;;;;;;15.25;6.43;;;16.30;99.90;;;;;;5056352;28;20029;-51
2023/10/07 08:39:28;;;;;;;13.43;6.03;;;16.20;99.90;;;;;;5057705;28;20079;-52
2023/10/07 08:41:58;;;;;;;28.33;8.32;;;16.20;99.90;;;;;;5057058;28;20037;-52
2023/10/07 08:44:31;;;;;;;20.17;7.07;;;16.20;99.90;;;;;;5056075;28;20029;-50
2023/10/07 08:47:03;;;;;;;21.98;7.78;;;16.20;99.90;;;;;;5055089;28;20044;-50
2023/10/07 08:49:32;;;;;;;22.88;8.20;;;16.20;99.90;;;;;;5057375;28;20406;-51
2023/10/07 08:51:59;;;;;;;20.88;8.07;;;16.20;99.90;;;;;;5057211;28;20117;-51
2023/10/07 08:54:31;;;;;;;20.63;7.32;;;16.30;99.90;;;;;;5056992;28;20108;-50
2023/10/07 08:56:58;;;;;;;17.10;6.75;;;16.30;99.90;;;;;;5056943;28;20025;-49
2023/10/07 08:59:25;;;;;;;23.75;7.30;;;16.30;99.90;;;;;;5057230;28;20033;-50
2023/10/07 09:02:00;;;;;;;18.08;7.10;;;16.40;99.90;;;;;;5057091;28;20056;-49
2023/10/07 09:04:32;;;;;;;26.55;8.32;;;16.50;99.90;;;;;;5056191;28;20036;-47
2023/10/07 09:07:04;;;;;;;18.02;7.05;;;16.60;99.90;;;;;;5055630;28;20408;-48
2023/10/07 09:09:43;;;;;;;22.70;8.45;;;16.50;99.90;;;;;;5055909;28;20476;-46
2023/10/07 09:12:35;;;;;;;16.48;6.38;;;16.60;99.90;;;;;;5055816;28;20040;-50
2023/10/07 09:15:07;;;;;;;20.02;8.60;;;16.50;99.90;;;;;;5056110;28;20405;-48
2023/10/07 09:17:35;;;;;;;26.98;9.50;;;16.50;99.90;;;;;;5056737;28;20101;-49
2023/10/07 09:20:01;;;;;;;31.83;9.90;;;16.50;99.90;;;;;;5056417;28;20036;-47
2023/10/07 09:22:33;;;;;;;23.27;8.07;;;16.50;99.90;;;;;;5055501;28;20033;-50
2023/10/07 09:25:17;;;;;;;26.45;8.57;;;16.40;99.90;;;;;;5056691;28;20040;-51
2023/10/07 09:27:54;;;;;;;21.45;8.50;;;16.50;99.90;;;;;;5055958;28;20519;-49
2023/10/07 09:30:35;;;;;;;28.77;10.48;;;16.50;99.90;;;;;;5056685;28;20107;-50
2023/10/07 09:33:17;;;;;;;35.20;12.60;;;16.60;99.90;;;;;;5055380;28;20040;-50
2023/10/07 09:38:34;;;;;;;30.73;9.45;;;16.60;99.90;;;;;;5055934;28;20409;-50
2023/10/07 09:41:12;;;;;;;27.40;9.80;;;16.60;99.90;;;;;;5038471;28;20326;-49
2023/10/07 09:43:43;;;;;;;22.55;8.15;;;16.60;99.90;;;;;;5056432;28;20040;-48
2023/10/07 09:46:10;;;;;;;19.80;7.40;;;16.70;99.90;;;;;;5056266;28;20029;-52
2023/10/07 09:48:41;;;;;;;20.30;7.20;;;16.70;99.90;;;;;;5055710;28;20056;-49
2023/10/07 09:51:24;;;;;;;20.63;8.73;;;16.80;99.90;;;;;;5056144;28;20036;-51
2023/10/07 09:54:16;;;;;;;22.90;8.88;;;17.00;99.90;;;;;;5055045;28;20033;-50
2023/10/07 09:57:14;;;;;;;20.23;6.35;;;17.00;99.90;;;;;;5054493;28;20028;-49
2023/10/07 10:00:37;;;;;;;25.52;8.25;;;17.10;99.90;;;;;;5054711;28;20029;-49
2023/10/07 10:03:20;;;;;;;23.88;8.05;;;17.50;99.90;;;;;;5055517;28;20179;-49
2023/10/07 10:06:16;;;;;;;24.88;7.15;;;17.70;99.90;;;;;;5054125;28;20049;-49
2023/10/07 10:08:56;;;;;;;15.85;5.63;;;17.60;99.90;;;;;;5054587;28;20094;-50
2023/10/07 10:11:31;;;;;;;24.35;7.25;;;17.70;99.90;;;;;;5055461;28;20043;-49
2023/10/07 10:16:59;;;;;;;28.85;8.35;;;18.30;99.90;;;;;;5055446;28;20029;-51
2023/10/07 10:19:44;;;;;;;23.30;7.53;;;18.40;99.90;;;;;;5054212;28;20045;-49
2023/10/07 10:22:11;;;;;;;23.08;8.00;;;18.40;99.90;;;;;;5055364;28;20446;-50
2023/10/07 10:24:43;;;;;;;18.10;6.47;;;18.10;99.90;;;;;;5054208;28;20025;-48
2023/10/07 10:27:13;;;;;;;20.08;6.78;;;18.20;99.90;;;;;;5038207;28;20068;-51
2023/10/07 10:29:52;;;;;;;27.58;9.55;;;18.30;99.90;;;;;;5055400;28;20029;-51
2023/10/07 10:32:40;;;;;;;25.48;8.50;;;18.60;99.90;;;;;;5053999;28;20365;-50
2023/10/07 10:35:06;;;;;;;16.30;5.82;;;19.00;99.90;;;;;;5055078;28;20025;-51
2023/10/07 10:37:32;;;;;;;21.63;7.55;;;19.20;99.90;;;;;;5055013;28;20044;-49
2023/10/07 10:40:05;;;;;;;20.30;6.97;;;19.40;99.90;;;;;;5055179;28;20029;-51
2023/10/07 10:42:41;;;;;;;22.80;7.25;;;19.60;99.90;;;;;;5054073;28;20028;-48
2023/10/07 10:45:15;;;;;;;21.13;6.70;;;20.00;99.90;;;;;;5037839;28;20068;-48
2023/10/07 10:47:45;;;;;;;24.38;7.53;;;19.90;99.90;;;;;;5054838;28;20029;-49
2023/10/07 10:50:17;;;;;;;20.58;7.22;;;19.80;99.90;;;;;;5054597;28;20033;-49
2023/10/07 10:52:48;;;;;;;18.45;7.03;;;19.90;99.90;;;;;;5054892;28;20032;-51
2023/10/07 10:55:17;;;;;;;18.52;7.85;;;19.80;99.90;;;;;;5053654;28;20454;-50
2023/10/07 10:57:43;;;;;;;19.65;6.90;;;19.30;99.90;;;;;;5054675;28;20159;-51
2023/10/07 11:00:19;;;;;;;20.02;5.53;;;18.80;99.90;;;;;;5054888;28;20457;-50
2023/10/07 11:02:46;;;;;;;20.80;7.53;;;18.60;99.90;;;;;;5054589;28;20471;-51
2023/10/07 11:05:15;;;;;;;20.60;6.22;;;18.70;99.90;;;;;;5053991;28;20039;-49
2023/10/07 11:07:46;;;;;;;19.38;6.07;;;19.00;99.90;;;;;;5053263;28;20094;-51
2023/10/07 11:10:12;;;;;;;13.35;5.78;;;19.40;99.90;;;;;;5052556;28;20025;-48
2023/10/07 11:12:40;;;;;;;14.55;6.10;;;19.60;99.90;;;;;;5053948;28;20033;-51
2023/10/07 11:15:13;;;;;;;26.25;7.43;;;19.60;99.90;;;;;;5054522;28;20071;-51
2023/10/07 11:17:51;;;;;;;16.25;5.22;;;20.10;99.90;;;;;;5037600;28;20125;-48
2023/10/07 11:20:19;;;;;;;19.98;6.32;;;20.30;99.90;;;;;;5054546;28;20048;-51
2023/10/07 11:22:46;;;;;;;21.42;6.25;;;20.40;99.90;;;;;;5054271;28;20091;-50
2023/10/07 11:25:14;;;;;;;19.02;5.45;;;20.70;99.90;;;;;;5054373;28;20116;-49
2023/10/07 11:27:42;;;;;;;15.02;5.80;;;21.00;99.90;;;;;;5054337;28;20115;-52
2023/10/07 11:30:11;;;;;;;19.10;6.78;;;21.10;99.90;;;;;;5054409;28;20021;-51
2023/10/07 11:32:40;;;;;;;13.63;5.45;;;21.00;99.90;;;;;;5054201;28;20350;-51
2023/10/07 11:35:27;;;;;;;15.77;5.85;;;21.10;99.90;;;;;;5053749;28;20033;-50
2023/10/07 11:37:59;;;;;;;21.55;6.35;;;20.70;99.90;;;;;;5054218;28;20037;-51
2023/10/07 11:40:25;;;;;;;16.13;5.90;;;20.90;99.90;;;;;;5052736;28;20033;-48
2023/10/07 11:42:52;;;;;;;16.15;5.50;;;21.50;99.90;;;;;;5053448;28;20083;-48
2023/10/07 11:45:22;;;;;;;14.43;5.47;;;21.70;99.90;;;;;;5053821;28;20025;-50
2023/10/07 11:47:48;;;;;;;17.30;5.95;;;21.70;99.90;;;;;;5053665;28;20036;-50
2023/10/07 11:50:16;;;;;;;17.45;5.47;;;21.90;99.90;;;;;;5053572;28;20391;-50
2023/10/07 11:52:42;;;;;;;23.38;7.03;;;22.00;99.90;;;;;;5053343;28;20029;-52
2023/10/07 11:55:09;;;;;;;15.88;4.93;;;22.20;99.90;;;;;;5053633;28;20029;-52
2023/10/07 11:57:37;;;;;;;16.98;5.03;;;22.00;99.90;;;;;;5054066;28;20041;-51
2023/10/07 12:00:09;;;;;;;22.23;7.13;;;21.50;99.90;;;;;;5054025;28;20036;-52
2023/10/07 12:02:34;;;;;;;27.77;7.05;;;21.60;99.90;;;;;;5053919;28;20509;-50
2023/10/07 12:05:00;;;;;;;25.48;6.38;;;22.00;99.90;;;;;;5053407;28;20189;-52
2023/10/07 12:07:29;;;;;;;24.00;5.43;;;21.90;99.90;;;;;;5052809;28;20462;-52
2023/10/07 12:09:55;;;;;;;;;;;21.80;99.90;;;;;;5054403;28;20437;-52
2023/10/07 12:12:21;;;;;;;16.92;4.93;;;21.60;99.90;;;;;;5053923;28;19920;-51
2023/10/07 12:14:49;;;;;;;18.85;5.63;;;21.40;99.90;;;;;;5052703;28;20121;-51
2023/10/07 12:17:16;;;;;;;13.90;5.80;;;21.30;99.90;;;;;;5053922;28;20036;-49
2023/10/07 12:19:42;;;;;;;15.55;4.68;;;21.10;99.90;;;;;;5036566;28;20041;-51
2023/10/07 12:22:07;;;;;;;14.82;4.82;;;20.80;99.90;;;;;;5055625;28;20035;-51
2023/10/07 12:24:33;;;;;;;16.60;6.10;;;21.10;99.90;;;;;;5058351;28;20103;-51
2023/10/07 12:27:00;;;;;;;21.65;7.10;;;21.20;99.90;;;;;;5057616;28;20094;-51
2023/10/07 12:29:27;;;;;;;20.77;6.60;;;21.40;99.90;;;;;;5056352;28;20037;-48
2023/10/07 12:31:53;;;;;;;17.73;6.20;;;21.40;99.90;;;;;;5057593;28;20407;-49
2023/10/07 12:34:19;;;;;;;20.77;6.68;;;21.00;99.90;;;;;;5057243;28;20482;-51
2023/10/07 12:36:46;;;;;;;20.13;6.55;;;20.10;99.90;;;;;;5057185;28;20086;-51
2023/10/07 12:39:14;;;;;;;22.55;6.45;;;20.20;99.90;;;;;;5057305;28;20043;-51
2023/10/07 12:41:41;;;;;;;19.70;6.13;;;20.60;99.90;;;;;;5057324;28;20331;-49
2023/10/07 12:44:10;;;;;;;18.80;5.72;;;20.80;99.90;;;;;;5057353;28;20055;-52
2023/10/07 12:46:39;;;;;;;18.95;6.43;;;20.70;99.90;;;;;;5057253;28;20029;-49
2023/10/07 12:49:11;;;;;;;;;;;21.10;99.90;;;;;;5057238;28;20033;-52
2023/10/07 12:51:44;;;;;;;15.52;5.63;;;21.40;99.90;;;;;;5057185;28;20007;-49
2023/10/07 12:54:10;;;;;;;15.60;5.72;;;21.50;99.90;;;;;;5056578;28;20393;-52
2023/10/07 12:56:43;;;;;;;16.40;5.10;;;21.10;99.90;;;;;;5055404;28;20025;-52
2023/10/07 12:59:23;;;;;;;22.85;6.43;;;20.60;99.90;;;;;;5056636;28;20083;-51
2023/10/07 13:01:55;;;;;;;17.95;6.40;;;20.50;99.90;;;;;;5057064;28;20025;-50
2023/10/07 13:04:25;;;;;;;16.33;5.75;;;20.50;99.90;;;;;;5055746;28;20090;-51
2023/10/07 13:07:05;;;;;;;;;;;20.40;99.90;;;;;;5056541;28;20132;-51
2023/10/07 13:09:30;;;;;;;16.40;5.53;;;20.20;99.90;;;;;;5056917;28;19921;-52
2023/10/07 13:11:59;;;;;;;10.27;4.28;;;20.30;99.90;;;;;;5056707;28;20057;-51
2023/10/07 13:14:28;;;;;;;13.13;4.97;;;20.20;99.90;;;;;;5055281;28;20040;-51
2023/10/07 13:16:57;;;;;;;19.55;5.82;;;20.00;99.90;;;;;;5056458;28;20039;-52
2023/10/07 13:19:26;;;;;;;21.13;7.60;;;20.00;99.90;;;;;;5056479;28;20458;-51
2023/10/07 13:21:59;;;;;;;17.80;7.07;;;19.80;99.90;;;;;;5056378;28;20120;-51
2023/10/07 13:24:26;;;;;;;19.65;6.55;;;19.80;99.90;;;;;;5056768;28;20468;-52
2023/10/07 13:26:51;;;;;;;19.65;5.40;;;19.70;99.90;;;;;;5056478;28;20033;-51
2023/10/07 13:29:17;;;;;;;9.75;4.13;;;19.80;99.90;;;;;;5056424;28;20036;-52
2023/10/07 13:31:43;;;;;;;18.50;6.15;;;19.70;99.90;;;;;;5056616;28;20039;-52
2023/10/07 13:34:10;;;;;;;21.88;5.65;;;19.60;99.90;;;;;;5056059;28;20032;-52
2023/10/07 13:36:38;;;;;;;10.13;5.38;;;19.70;99.90;;;;;;5056173;28;20063;-51
2023/10/07 13:39:15;;;;;;;22.88;5.63;;;19.70;99.90;;;;;;5056048;28;20477;-51
2023/10/07 13:41:45;;;;;;;19.27;5.30;;;19.70;99.90;;;;;;5055144;28;20474;-51
2023/10/07 13:44:16;;;;;;;15.63;5.88;;;20.20;99.90;;;;;;5056155;28;20029;-52
2023/10/07 13:46:42;;;;;;;19.85;6.07;;;20.30;99.90;;;;;;5055918;28;20040;-52
2023/10/07 13:49:13;;;;;;;15.45;4.93;;;20.20;99.90;;;;;;5055804;28;20036;-51